Arthur, West Virginia
Current Conditions -  °F | °C
As of 6:55 AM on Saturday 01 Nov 2014 (Local Time) from KW99 Reporting Station
Haze Haze  
Wind Chill: 40°   Ceiling: Unl
Heat Index: 40°   Visibility: 4mi
Dew Point: 38°   Wind: 0mph
Humidity: 93%   Direction: NA
Pressure: 29.87"   Gusts: NA
Location:  38.9337°N, 79.1435°W
Report Text: KW99 011055Z AUTO 00000KT 4SM BR SCT095 05/04 A2987 RMK AO2 T00460036
Loading
Personal Weather Stations






























Interactive Weather Map New forecast layout! Learn more

10-Day Weather Forecast

Advertisements
Track Severe Weather on mobile